Map

Track Data

SID SEASON NUMBER BASIN SUBBASIN NAME ISO_TIME NATURE LAT LON WMO_WIND WMO_PRES WMO_AGENCY TRACK_TYPE DIST2LAND LANDFALL IFLAG USA_AGENCY USA_ATCF_ID USA_LAT USA_LON USA_RECORD USA_STATUS USA_WIND USA_PRES USA_SSHS USA_R34_NE USA_R34_SE USA_R34_SW USA_R34_NW USA_R50_NE USA_R50_SE USA_R50_SW USA_R50_NW USA_R64_NE USA_R64_SE USA_R64_SW USA_R64_NW USA_POCI USA_ROCI USA_RMW USA_EYE TOKYO_LAT TOKYO_LON TOKYO_GRADE TOKYO_WIND TOKYO_PRES TOKYO_R50_DIR TOKYO_R50_LONG TOKYO_R50_SHORT TOKYO_R30_DIR TOKYO_R30_LONG TOKYO_R30_SHORT TOKYO_LAND CMA_LAT CMA_LON CMA_CAT CMA_WIND CMA_PRES HKO_LAT HKO_LON HKO_CAT HKO_WIND HKO_PRES NEWDELHI_LAT NEWDELHI_LON NEWDELHI_GRADE NEWDELHI_WIND NEWDELHI_PRES NEWDELHI_CI NEWDELHI_DP NEWDELHI_POCI REUNION_LAT REUNION_LON REUNION_TYPE REUNION_WIND REUNION_PRES REUNION_TNUM REUNION_CI REUNION_RMW REUNION_R34_NE REUNION_R34_SE REUNION_R34_SW REUNION_R34_NW REUNION_R50_NE REUNION_R50_SE REUNION_R50_SW REUNION_R50_NW REUNION_R64_NE REUNION_R64_SE REUNION_R64_SW REUNION_R64_NW BOM_LAT BOM_LON BOM_TYPE BOM_WIND BOM_PRES BOM_TNUM BOM_CI BOM_RMW BOM_R34_NE BOM_R34_SE BOM_R34_SW BOM_R34_NW BOM_R50_NE BOM_R50_SE BOM_R50_SW BOM_R50_NW BOM_R64_NE BOM_R64_SE BOM_R64_SW BOM_R64_NW BOM_ROCI BOM_POCI BOM_EYE BOM_POS_METHOD BOM_PRES_METHOD NADI_LAT NADI_LON NADI_CAT NADI_WIND NADI_PRES WELLINGTON_LAT WELLINGTON_LON WELLINGTON_WIND WELLINGTON_PRES DS824_LAT DS824_LON DS824_STAGE DS824_WIND DS824_PRES TD9636_LAT TD9636_LON TD9636_STAGE TD9636_WIND TD9636_PRES TD9635_LAT TD9635_LON TD9635_WIND TD9635_PRES TD9635_ROCI NEUMANN_LAT NEUMANN_LON NEUMANN_CLASS NEUMANN_WIND NEUMANN_PRES MLC_LAT MLC_LON MLC_CLASS MLC_WIND MLC_PRES USA_GUST BOM_GUST BOM_GUST_PER REUNION_GUST REUNION_GUST_PER USA_SEAHGT USA_SEARAD_NE USA_SEARAD_SE USA_SEARAD_SW USA_SEARAD_NW STORM_SPEED STORM_DIR
1982344S09200 1983 104 SP MM LISA 1982-12-10 00:00:00 TS -9.00000 -160.000 main 1430 1430 O_________O_O_ jtwc_sh SH051983 -9.00000 -160.000 25 -1 -9.00000 -160.000 1 -9.00000 -160.000 TC 25 3 89
1982344S09200 1983 104 SP MM LISA 1982-12-10 03:00:00 TS -8.99670 -159.849 main 1451 1451 P_________P_P_ SH051983 -8.98250 -159.860 25 -1 -9.02511 -159.828 1 -8.98250 -159.860 TC 25 3 94
1982344S09200 1983 104 SP MM LISA 1982-12-10 06:00:00 TS -9.02005 -159.685 main 1461 1461 O_________P_O_ jtwc_sh SH051983 -9.00000 -159.700 25 -1 -9.06014 -159.656 1 -9.00000 -159.700 TC 25 4 105
1982344S09200 1983 104 SP MM LISA 1982-12-10 09:00:00 TS -9.09004 -159.498 main 1477 1477 P_________P_P_ SH051983 -9.07750 -159.508 25 -1 -9.11511 -159.480 1 -9.07750 -159.508 TC 25 4 108
1982344S09200 1983 104 SP MM LISA 1982-12-10 12:00:00 TS -9.14615 -159.292 30 997 wellington main 1497 1493 O_______O_O_O_ jtwc_sh SH051983 -9.20000 -159.300 25 -1 -8.50000 -159.200 30 997 -9.20000 -159.300 1 -9.20000 -159.300 TC 25 4 111
1982344S09200 1983 104 SP MM LISA 1982-12-10 15:00:00 TS -9.24865 -159.076 main 1514 1510 P_______P_P_P_ SH051983 -9.31246 -159.115 27 -1 -8.83606 -158.852 30 997 -9.32733 -159.111 1 -9.31246 -159.115 TC 27 6 122
1982344S09200 1983 104 SP MM LISA 1982-12-10 18:00:00 TS -9.44277 -158.817 main 1537 1533 O_______P_P_O_ jtwc_sh SH051983 -9.50000 -158.900 30 -1 -9.18758 -158.493 30 997 -9.51970 -158.896 1 -9.50000 -158.900 TC 30 7 131
1982344S09200 1983 104 SP MM LISA 1982-12-10 21:00:00 TS -9.73060 -158.509 main 1558 1554 P_______P_P_P_ SH051983 -9.77492 -158.645 30 -1 -9.57032 -158.112 30 997 -9.80222 -158.633 1 -9.77492 -158.645 TC 30 10 137
1982344S09200 1983 104 SP MM LISA 1982-12-11 00:00:00 TS -10.1500 -158.150 30 997 wellington main 1586 1580 O_______O_O_O_ jtwc_sh SH051983 -10.2000 -158.300 30 -1 -10.0000 -157.700 30 997 -10.2000 -158.300 1 -10.2000 -158.300 TC 30 13 141
1982344S09200 1983 104 SP MM LISA 1982-12-11 03:00:00 TS -10.7103 -157.695 main 1611 1611 P_______P_P_P_ SH051983 -10.8051 -157.830 32 -1 -10.4876 -157.250 30 997 -10.7435 -157.868 1 -10.8051 -157.830 TC 32 15 142
1982344S09200 1983 104 SP MM LISA 1982-12-11 06:00:00 TS -11.3552 -157.185 main 1649 1649 O_______P_P_O_ jtwc_sh SH051983 -11.5000 -157.300 35 0 -11.0251 -156.772 30 997 -11.3955 -157.368 1 -11.5000 -157.300 TC 35 16 142
1982344S09200 1983 104 SP MM LISA 1982-12-11 09:00:00 TS -11.9999 -156.679 main 1691 1691 P_______P_P_P_ SH051983 -12.1499 -156.800 35 0 -11.6001 -156.284 30 997 -12.0998 -156.834 1 -12.1499 -156.800 TC 35 16 143
1982344S09200 1983 104 SP MM LISA 1982-12-11 12:00:00 TS -12.6500 -156.175 30 997 wellington main 1737 1737 O_______O_O_O_ jtwc_sh SH051983 -12.8000 -156.300 35 0 -12.2000 -155.800 30 997 -12.8000 -156.300 1 -12.8000 -156.300 TC 35 16 143
1982344S09200 1983 104 SP MM LISA 1982-12-11 15:00:00 TS -13.3030 -155.686 main 1785 1785 P_______P_P_P_ SH051983 -13.4649 -155.792 37 0 -12.8194 -155.339 32 995 -13.4626 -155.822 1 -13.4649 -155.792 TC 37 16 144
1982344S09200 1983 104 SP MM LISA 1982-12-11 18:00:00 TS -13.9404 -155.209 main 1835 1835 O_______P_P_O_ jtwc_sh SH051983 -14.1000 -155.300 40 0 -13.4572 -154.885 35 993 -14.1043 -155.350 1 -14.1000 -155.300 TC 40 15 144
1982344S09200 1983 104 SP MM LISA 1982-12-11 21:00:00 TS -14.5437 -154.754 main 1878 1878 P_______P_P_P_ SH051983 -14.6948 -154.850 40 0 -14.0913 -154.438 37 991 -14.6939 -154.878 1 -14.6948 -154.850 TC 40 14 142
1982344S09200 1983 104 SP MM LISA 1982-12-12 00:00:00 TS -15.0750 -154.300 40 990 wellington main 1933 1933 O_______O_O_O_ jtwc_sh SH051983 -15.2000 -154.400 40 0 -14.7000 -154.000 40 990 -15.2000 -154.400 2 -15.2000 -154.400 TC 40 13 136
1982344S09200 1983 104 SP MM LISA 1982-12-12 03:00:00 TS -15.5056 -153.791 main 1988 1988 P_______P_P_P_ SH051983 -15.5949 -153.907 42 0 -15.2660 -153.523 42 988 -15.5665 -153.825 2 -15.5949 -153.907 TC 42 13 129
1982344S09200 1983 104 SP MM LISA 1982-12-12 06:00:00 TS -15.8640 -153.279 main 2045 2045 O_______P_P_O_ jtwc_sh SH051983 -15.9000 -153.400 45 0 -15.8027 -153.060 45 987 -15.8534 -153.257 2 -15.9000 -153.400 TC 45 12 125
1982344S09200 1983 104 SP MM LISA 1982-12-12 09:00:00 TS -16.1779 -152.778 main 2100 2100 P_______P_P_P_ SH051983 -16.1426 -152.855 45 0 -16.3130 -152.642 47 986 -16.1134 -152.760 2 -16.1426 -152.855 TC 45 11 126
1982344S09200 1983 104 SP MM LISA 1982-12-12 12:00:00 TS -16.5000 -152.375 50 985 wellington main 2146 2146 O_______O_O_O_ jtwc_sh SH051983 -16.4000 -152.400 45 0 -16.8000 -152.300 50 985 -16.4000 -152.400 2 -16.4000 -152.400 TC 45 10 137
1982344S09200 1983 104 SP MM LISA 1982-12-12 15:00:00 TS -16.8995 -152.076 main 2182 2182 P_______P_P_P_ SH051983 -16.7698 -152.095 47 0 -17.2868 -151.942 51 983 -16.7716 -152.172 2 -16.7698 -152.095 TC 47 9 154
1982344S09200 1983 104 SP MM LISA 1982-12-12 18:00:00 TS -17.3329 -151.943 main 2209 2204 O_______P_P_O_ jtwc_sh SH051983 -17.2000 -152.000 50 0 -17.7507 -151.679 52 982 -17.1808 -152.094 2 -17.2000 -152.000 TC 50 9 174
1982344S09200 1983 104 SP MM LISA 1982-12-12 21:00:00 TS -17.7671 -151.980 main 2206 2191 P_______P_P_P_ SH051983 -17.6273 -152.088 50 0 -18.1893 -151.577 53 981 -17.6246 -152.169 2 -17.6273 -152.088 TC 50 9 197
1982344S09200 1983 104 SP MM LISA 1982-12-13 00:00:00 TS -18.2250 -152.225 55 980 wellington main 2192 2151 O_______O_O_O_ jtwc_sh SH051983 -18.1000 -152.400 50 0 -18.6000 -151.700 55 980 -18.1000 -152.400 2 -18.1000 -152.400 TC 50 12 215
1982344S09200 1983 104 SP MM LISA 1982-12-13 03:00:00 TS -18.7405 -152.704 main 2151 2102 P_______P_P_P_ SH051983 -18.6428 -152.905 50 0 -19.0055 -152.174 56 978 -18.6711 -152.831 2 -18.6428 -152.905 TC 50 15 225
1982344S09200 1983 104 SP MM LISA 1982-12-13 06:00:00 TS -19.2591 -153.315 main 2105 2056 O_______P_P_O_ jtwc_sh SH051983 -19.2000 -153.500 50 0 -19.3788 -152.861 57 977 -19.2576 -153.400 2 -19.2000 -153.500 TC 50 15 229
1982344S09200 1983 104 SP MM LISA 1982-12-13 09:00:00 TS -19.7594 -153.933 main 2059 2018 P_______P_P_P_ SH051983 -19.7676 -154.060 50 0 -19.7122 -153.618 58 976 -19.7900 -153.994 2 -19.7676 -154.060 TC 50 14 230
1982344S09200 1983 104 SP MM LISA 1982-12-13 12:00:00 TS -20.1500 -154.450 60 975 wellington main 2018 1996 O_______O_O_O_ jtwc_sh SH051983 -20.2000 -154.500 50 0 -20.0000 -154.300 60 975 -20.2000 -154.500 2 -20.2000 -154.500 TC 50 9 233
1982344S09200 1983 104 SP MM LISA 1982-12-13 15:00:00 TS -20.3308 -154.735 main 1996 1980 P_______P_P_P_ SH051983 -20.3672 -154.703 52 0 -20.2339 -154.763 58 976 -20.3546 -154.772 2 -20.3672 -154.703 TC 52 5 240
1982344S09200 1983 104 SP MM LISA 1982-12-13 18:00:00 TS -20.4057 -154.914 main 1980 1960 O_______P_P_O_ jtwc_sh SH051983 -20.4000 -154.800 55 0 -20.4288 -155.118 57 977 -20.3939 -154.938 2 -20.4000 -154.800 TC 55 3 248
1982344S09200 1983 104 SP MM LISA 1982-12-13 21:00:00 TS -20.4576 -155.079 main 1964 1954 P_______P_P_P_ SH051983 -20.4050 -154.958 55 0 -20.6093 -155.365 56 978 -20.4112 -155.034 2 -20.4050 -154.958 TC 55 3 238
1982344S09200 1983 104 SP MM LISA 1982-12-14 00:00:00 TS -20.5750 -155.200 55 980 wellington main 1958 1952 O_______O_O_O_ jtwc_sh SH051983 -20.5000 -155.100 55 0 -20.8000 -155.500 55 980 -20.5000 -155.100 2 -20.5000 -155.100 TC 55 984 5 206
1982344S09200 1983 104 SP MM LISA 1982-12-14 03:00:00 TS -20.8906 -155.301 main 1960 1960 P_______P_P_P_ SH051983 -20.8550 -155.215 52 0 -21.0394 -155.542 53 981 -20.8131 -155.233 2 -20.8550 -155.215 TC 52 7 191
1982344S09200 1983 104 SP MM LISA 1982-12-14 06:00:00 TS -21.2743 -155.354 main 1967 1967 O_______P_P_O_ jtwc_sh SH051983 -21.3000 -155.300 50 0 -21.2922 -155.478 52 982 -21.2049 -155.339 2 -21.3000 -155.300 TC 50 7 186
1982344S09200 1983 104 SP MM LISA 1982-12-14 09:00:00 TS -21.6283 -155.382 main 1980 1980 P_______P_P_P_ SH051983 -21.6725 -155.387 50 0 -21.5489 -155.351 51 983 -21.6193 -155.401 2 -21.6725 -155.387 TC 50 7 178
1982344S09200 1983 104 SP MM LISA 1982-12-14 12:00:00 TS -21.9500 -155.350 50 985 wellington main 2003 2003 O_______O_O_O_ jtwc_sh SH051983 -22.0000 -155.400 50 0 -21.8000 -155.200 50 985 -22.0000 -155.400 2 -22.0000 -155.400 TC 50 6 167
1982344S09200 1983 104 SP MM LISA 1982-12-14 15:00:00 TS -22.2165 -155.237 main 2026 2026 P_______P_P_P_ SH051983 -22.2725 -155.280 47 0 -22.0404 -155.081 48 985 -22.2804 -155.307 2 -22.2725 -155.280 TC 47 6 153
1982344S09200 1983 104 SP MM LISA 1982-12-14 18:00:00 TS -22.4476 -155.076 main 2045 2045 O_______P_P_O_ jtwc_sh SH051983 -22.5000 -155.100 45 0 -22.2726 -154.950 47 986 -22.5177 -155.153 2 -22.5000 -155.100 TC 45 5 147
1982344S09200 1983 104 SP MM LISA 1982-12-14 21:00:00 TS -22.6611 -154.919 main 2078 2078 P_______P_P_P_ SH051983 -22.7150 -154.942 45 0 -22.4935 -154.819 46 986 -22.7211 -154.973 2 -22.7150 -154.942 TC 45 5 146
1982344S09200 1983 104 SP MM LISA 1982-12-15 00:00:00 TS -22.8500 -154.775 45 987 wellington main 2092 2092 O_______O_O_O_ jtwc_sh SH051983 -22.9000 -154.800 45 0 -22.7000 -154.700 45 987 -22.9000 -154.800 2 -22.9000 -154.800 TC 45 4 148
1982344S09200 1983 104 SP MM LISA 1982-12-15 03:00:00 TS -23.0230 -154.671 main 2111 2111 P_______P_P_P_ SH051983 -23.0575 -154.692 42 0 -22.8974 -154.610 42 989 -23.0796 -154.689 2 -23.0575 -154.692 TC 42 4 152
1982344S09200 1983 104 SP MM LISA 1982-12-15 06:00:00 TS -23.1793 -154.582 main 2130 2130 O_______P_P_O_ jtwc_sh SH051983 -23.2000 -154.600 40 0 -23.0799 -154.535 40 991 -23.2374 -154.592 2 -23.2000 -154.600 TC 40 4 152
1982344S09200 1983 104 SP MM LISA 1982-12-15 09:00:00 TS -23.3347 -154.491 main 2144 2144 P_______P_P_P_ SH051983 -23.3575 -154.500 40 0 -23.2475 -154.467 37 993 -23.3765 -154.499 2 -23.3575 -154.500 TC 40 3 150
1982344S09200 1983 104 SP MM LISA 1982-12-15 12:00:00 TS -23.4750 -154.400 35 995 wellington main 2163 2163 O_______O_O_O_ jtwc_sh SH051983 -23.5000 -154.400 40 0 -23.4000 -154.400 35 995 -23.5000 -154.400 2 -23.5000 -154.400 TC 40 3 146
1982344S09200 1983 104 SP MM LISA 1982-12-15 15:00:00 TS -23.5852 -154.310 main 2177 2177 P_______P_P_P_ SH051983 -23.6075 -154.307 37 0 -23.5149 -154.337 33 995 -23.6110 -154.288 2 -23.6075 -154.307 TC 37 3 140
1982344S09200 1983 104 SP MM LISA 1982-12-15 18:00:00 TS -23.6783 -154.214 main 2191 2191 O_______P_P_O_ jtwc_sh SH051983 -23.7000 -154.200 35 0 -23.6199 -154.272 32 996 -23.7127 -154.165 2 -23.7000 -154.200 TC 35 3 136
1982344S09200 1983 104 SP MM LISA 1982-12-15 21:00:00 TS -23.7766 -154.109 main 2205 2205 P_______P_P_P_ SH051983 -23.7975 -154.060 35 0 -23.7399 -154.196 31 996 -23.8079 -154.035 2 -23.7975 -154.060 TC 35 3 141
1982344S09200 1983 104 SP MM LISA 1982-12-16 00:00:00 TS -23.9000 -154.014 30 997 wellington main 2220 2220 O_______O_O_O_ jtwc_sh SH051983 -23.9000 -153.900 35 0 -23.9000 -154.100 30 997 -23.9000 -153.900 2 -23.9000 -153.900 TC 35 3 163
1982344S09200 1983 104 SP MM LISA 1982-12-16 03:00:00 NR -24.0950 -154.007 main 2230 2230 ________P_____ SH051983 -1 -24.0950 -154.007 30 997 2 TC 5 166
1982344S09200 1983 104 SP MM LISA 1982-12-16 06:00:00 NR -24.3370 -153.888 main 2249 2249 ________P_____ -1 -24.3370 -153.888 30 997 2 6 155
1982344S09200 1983 104 SP MM LISA 1982-12-16 09:00:00 NR -24.6355 -153.725 main 2283 2283 ________P_____ -1 -24.6355 -153.725 30 997 2 8 152
1982344S09200 1983 104 SP MM LISA 1982-12-16 12:00:00 NR -25.0000 -153.500 30 997 wellington main 2322 2322 ________O_____ -1 -25.0000 -153.500 30 997 9 149
1982344S09200 1983 104 SP MM LISA 1982-12-16 15:00:00 NR -25.4437 -153.199 main 2370 2370 ________P_____ -1 -25.4437 -153.199 30 997 11 148
1982344S09200 1983 104 SP MM LISA 1982-12-16 18:00:00 NR -25.9478 -152.833 main 2433 2433 ________P_____ -1 -25.9478 -152.833 30 997 13 146
1982344S09200 1983 104 SP MM LISA 1982-12-16 21:00:00 NR -26.4779 -152.426 main 2501 2501 ________P_____ -1 -26.4779 -152.426 30 997 13 145
1982344S09200 1983 104 SP MM LISA 1982-12-17 00:00:00 NR -27.0000 -152.000 30 997 wellington main 2564 2564 ________O_____ -1 -27.0000 -152.000 30 997 12 144
1982344S09200 1983 104 SP MM LISA 1982-12-17 03:00:00 NR -27.4469 -151.631 main 2621 2621 ________P_____ -1 -27.4469 -151.631 30 997 11 143
1982344S09200 1983 104 SP MM LISA 1982-12-17 06:00:00 NR -27.8829 -151.243 main 2684 2684 ________P_____ -1 -27.8829 -151.243 30 997 11 140
1982344S09200 1983 104 SP MM LISA 1982-12-17 09:00:00 NR -28.3276 -150.808 main 2740 2740 ________P_____ -1 -28.3276 -150.808 30 997 12 138
1982344S09200 1983 104 SP MM LISA 1982-12-17 12:00:00 NR -28.8000 -150.300 30 997 wellington main 2811 2811 ________O_____ -1 -28.8000 -150.300 30 997 14 137
1982344S09200 1983 104 SP MM LISA 1982-12-17 15:00:00 NR -29.3271 -149.746 main 2890 2890 ________P_____ -1 -29.3271 -149.746 30 997 15 136
1982344S09200 1983 104 SP MM LISA 1982-12-17 18:00:00 NR -29.8811 -149.106 main 2975 2975 ________P_____ -1 -29.8811 -149.106 30 997 16 133
1982344S09200 1983 104 SP MM LISA 1982-12-17 21:00:00 NR -30.4446 -148.363 main 3061 3061 ________P_____ -1 -30.4446 -148.363 30 997 18 129
1982344S09200 1983 104 SP MM LISA 1982-12-18 00:00:00 NR -31.0000 -147.500 30 997 wellington main 3170 3170 ________O_____ -1 -31.0000 -147.500 30 997 19 124
1982344S09200 1983 104 SP MM LISA 1982-12-18 03:00:00 NR -31.5326 -146.506 main 3241 3241 ________P_____ -1 -31.5326 -146.506 30 997 21 120
1982344S09200 1983 104 SP MM LISA 1982-12-18 06:00:00 NR -32.0415 -145.404 main 3317 3317 ________P_____ -1 -32.0415 -145.404 30 997 22 117
1982344S09200 1983 104 SP MM LISA 1982-12-18 09:00:00 NR -32.5294 -144.224 main 3403 3399 ________P_____ -1 -32.5294 -144.224 30 997 22 115
1982344S09200 1983 104 SP MM LISA 1982-12-18 12:00:00 NR -33.0000 -143.000 30 997 wellington main 3489 ________O_____ -1 -33.0000 -143.000 30 997 23 115

Digital Typhoon Data and Search

About IBTrACS Database

This database is a web-friendly format of International Best Track Archive for Climate Stewardship (IBTrACS), a global best track data archive curated by NOAA dating back to 1842.

Updated: 2021-12-03